Time;durP1;ratioP1;P1;durP2;ratioP2;P2;SDS_P1;SDS_P2;PMS_P1;PMS_P2;Temp;Humidity;BMP_temperature;BMP_pressure;BME280_temperature;BME280_humidity;BME280_pressure;Samples;Min_cycle;Max_cycle;Signal;HPM_P1;HPM_P2
2022/08/11 00:00:37;;;;;;;;;;;15.80;99.90;;;;;;5078287;28;19931;-60
2022/08/11 00:03:07;;;;;;;;;;;15.70;99.90;;;;;;5080789;28;19928;-60
2022/08/11 00:05:33;;;;;;;;;;;15.70;99.90;;;;;;5110542;27;19927;-61
2022/08/11 00:08:00;;;;;;;;;;;15.70;99.90;;;;;;5083290;28;19928;-62
2022/08/11 00:10:26;;;;;;;;;;;15.70;99.90;;;;;;5080611;28;19920;-61
2022/08/11 00:12:55;;;;;;;;;;;15.70;99.90;;;;;;5081045;28;19924;-63
2022/08/11 00:15:22;;;;;;;;;;;15.60;99.90;;;;;;5080400;28;19920;-63
2022/08/11 00:17:48;;;;;;;;;;;15.60;99.90;;;;;;5082584;28;19930;-61
2022/08/11 00:20:14;;;;;;;;;;;15.60;99.90;;;;;;5076944;28;20283;-62
2022/08/11 00:22:40;;;;;;;;;;;15.50;99.90;;;;;;5080044;28;19924;-64
2022/08/11 00:25:11;;;;;;;;;;;15.50;99.90;;;;;;5094704;27;19920;-62
2022/08/11 00:27:38;;;;;;;;;;;15.50;99.90;;;;;;5082937;28;20025;-62
2022/08/11 00:30:04;;;;;;;;;;;15.50;99.90;;;;;;5084743;28;19930;-60
2022/08/11 00:32:30;;;;;;;;;;;15.50;99.90;;;;;;5081728;28;19928;-60
2022/08/11 00:34:57;;;;;;;;;;;15.40;99.90;;;;;;5081058;28;19926;-61
2022/08/11 00:37:23;;;;;;;;;;;15.40;99.90;;;;;;5080066;28;19924;-60
2022/08/11 00:39:50;;;;;;;;;;;15.40;99.90;;;;;;5080755;28;19931;-60
2022/08/11 00:42:30;;;;;;;;;;;15.40;99.90;;;;;;5083366;28;19927;-59
2022/08/11 00:45:12;;;;;;;;;;;15.40;99.90;;;;;;5080907;28;19982;-61
2022/08/11 00:47:41;;;;;;;;;;;15.40;99.90;;;;;;5082107;28;20010;-60
2022/08/11 00:50:12;;;;;;;;;;;15.30;99.90;;;;;;5078677;28;19974;-61
2022/08/11 00:52:53;;;;;;;;;;;15.40;99.90;;;;;;5080235;28;20423;-60
2022/08/11 00:55:21;;;;;;;;;;;15.30;99.90;;;;;;5079804;28;20350;-59
2022/08/11 00:58:22;;;;;;;;;;;15.30;99.90;;;;;;5081607;28;19924;-60
2022/08/11 01:01:04;;;;;;;;;;;15.30;99.90;;;;;;5045129;28;20402;-59
2022/08/11 01:03:50;;;;;;;;;;;15.20;99.90;;;;;;5080354;28;19928;-61
2022/08/11 01:06:18;;;;;;;;;;;15.20;99.90;;;;;;5067202;28;19973;-61
2022/08/11 01:09:02;;;;;;;;;;;15.20;99.90;;;;;;5078241;28;19942;-59
2022/08/11 01:11:45;;;;;;;;;;;15.20;99.90;;;;;;5082218;28;19924;-59
2022/08/11 01:14:17;;;;;;;;;;;15.20;99.90;;;;;;5081809;28;19999;-60
2022/08/11 01:16:54;;;;;;;;;;;15.20;99.90;;;;;;5091392;28;20058;-60
2022/08/11 01:19:47;;;;;;;;;;;15.10;99.90;;;;;;5111591;28;19942;-59
2022/08/11 01:22:19;;;;;;;;;;;15.10;99.90;;;;;;5081429;28;19932;-60
2022/08/11 01:24:50;;;;;;;;;;;15.10;99.90;;;;;;5081180;28;19927;-60
2022/08/11 01:27:23;;;;;;;;;;;15.10;99.90;;;;;;5079223;28;20007;-60
2022/08/11 01:30:08;;;;;;;;;;;15.10;99.90;;;;;;5083027;28;19920;-60
2022/08/11 01:32:48;;;;;;;;;;;15.10;99.90;;;;;;5084862;28;19925;-60
2022/08/11 01:35:33;;;;;;;;;;;15.00;99.90;;;;;;5082074;28;19998;-59
2022/08/11 01:38:17;;;;;;;;;;;15.00;99.90;;;;;;5085209;28;19927;-60
2022/08/11 01:40:52;;;;;;;;;;;15.00;99.90;;;;;;5082819;28;20375;-60
2022/08/11 01:46:21;;;;;;;;;;;15.00;99.90;;;;;;5084281;28;19920;-60
2022/08/11 01:48:46;;;;;;;;;;;15.00;99.90;;;;;;5081902;28;20207;-60
2022/08/11 01:51:16;;;;;;;;;;;15.00;99.90;;;;;;5081946;28;19924;-61
2022/08/11 01:53:41;;;;;;;;;;;15.00;99.90;;;;;;5085058;28;19927;-61
2022/08/11 01:56:25;;;;;;;;;;;15.00;99.90;;;;;;5087917;28;20295;-60
2022/08/11 01:59:13;;;;;;;;;;;15.00;99.90;;;;;;5088388;28;19920;-60
2022/08/11 02:01:43;;;;;;;;;;;14.90;99.90;;;;;;5085154;28;19924;-60
2022/08/11 02:04:20;;;;;;;;;;;14.90;99.90;;;;;;5083456;28;19951;-59
2022/08/11 02:06:55;;;;;;;;;;;14.90;99.90;;;;;;5081733;28;20018;-60
2022/08/11 02:09:27;;;;;;;;;;;14.90;99.90;;;;;;5084152;28;19920;-60
2022/08/11 02:11:57;;;;;;;;;;;14.80;99.90;;;;;;5080293;28;19966;-60
2022/08/11 02:14:33;;;;;;;;;;;14.80;99.90;;;;;;5086931;28;19920;-61
2022/08/11 02:17:09;;;;;;;;;;;14.80;99.90;;;;;;5084071;28;19920;-60
2022/08/11 02:25:31;;;;;;;;;;;14.70;99.90;;;;;;5082130;28;19920;-59
2022/08/11 02:28:07;;;;;;;;;;;14.70;99.90;;;;;;5080160;28;20355;-59
2022/08/11 02:30:38;;;;;;;;;;;14.70;99.90;;;;;;5080505;28;19935;-59
2022/08/11 02:33:25;;;;;;;;;;;14.70;99.90;;;;;;5083832;28;19939;-60
2022/08/11 02:36:20;;;;;;;;;;;14.70;99.90;;;;;;5083159;28;20475;-59
2022/08/11 02:38:50;;;;;;;;;;;14.60;99.90;;;;;;5084494;28;20014;-60
2022/08/11 02:44:14;;;;;;;;;;;14.60;99.90;;;;;;5083292;28;19920;-61
2022/08/11 02:46:43;;;;;;;;;;;14.60;99.90;;;;;;5086978;28;20375;-60
2022/08/11 02:49:59;;;;;;;;;;;14.50;99.90;;;;;;5080557;28;20492;-60
2022/08/11 02:52:08;;;;;;;;;;;14.50;99.90;;;;;;5073031;28;19924;-61
2022/08/11 02:54:42;;;;;;;;;;;14.50;99.90;;;;;;5081285;28;21919;-60
2022/08/11 02:57:16;;;;;;;;;;;14.50;99.90;;;;;;5083235;28;19974;-60
2022/08/11 02:59:51;;;;;;;;;;;14.50;99.90;;;;;;5082075;28;19935;-60
2022/08/11 03:02:41;;;;;;;;;;;14.50;99.90;;;;;;5082169;28;20790;-60
2022/08/11 03:05:07;;;;;;;;;;;14.50;99.90;;;;;;5080328;28;20013;-61
2022/08/11 03:07:33;;;;;;;;;;;14.50;99.90;;;;;;5081261;28;20015;-59
2022/08/11 03:09:59;;;;;;;;;;;14.40;99.90;;;;;;5083113;28;19921;-60
2022/08/11 03:18:25;;;;;;;;;;;14.50;99.90;;;;;;5084572;28;19924;-61
2022/08/11 03:20:55;;;;;;;;;;;14.50;99.90;;;;;;5081292;28;19924;-62
2022/08/11 03:23:28;;;;;;;;;;;14.50;99.90;;;;;;5078664;28;20167;-60
2022/08/11 03:26:12;;;;;;;;;;;14.40;99.90;;;;;;5083144;28;20334;-60
2022/08/11 03:28:44;;;;;;;;;;;14.40;99.90;;;;;;5084227;28;19938;-61
2022/08/11 03:31:28;;;;;;;;;;;14.30;99.90;;;;;;5083195;28;20569;-59
2022/08/11 03:34:04;;;;;;;;;;;14.30;99.90;;;;;;5112428;27;19927;-60
2022/08/11 03:36:48;;;;;;;;;;;14.30;99.90;;;;;;5078174;28;19946;-60
2022/08/11 03:39:31;;;;;;;;;;;14.30;99.90;;;;;;5081670;28;20407;-61
2022/08/11 03:42:09;;;;;;;;;;;14.30;99.90;;;;;;5082225;28;19924;-60
2022/08/11 03:44:45;;;;;;;;;;;14.30;99.90;;;;;;5078914;28;19928;-60
2022/08/11 03:47:17;;;;;;;;;;;14.20;99.90;;;;;;5081434;28;20011;-60
2022/08/11 03:49:48;;;;;;;;;;;14.20;99.90;;;;;;5080534;28;19931;-61
2022/08/11 03:52:35;;;;;;;;;;;14.20;99.90;;;;;;5081337;28;19935;-60
2022/08/11 03:55:20;;;;;;;;;;;14.10;99.90;;;;;;5081146;28;19955;-60
2022/08/11 03:58:04;;;;;;;;;;;14.20;99.90;;;;;;5082088;28;19959;-61
2022/08/11 04:00:45;;;;;;;;;;;14.20;99.90;;;;;;5114919;27;20280;-62
2022/08/11 04:03:29;;;;;;;;;;;14.20;99.90;;;;;;5077629;28;20011;-59
2022/08/11 04:06:13;;;;;;;;;;;14.10;99.90;;;;;;5078659;28;20057;-60
2022/08/11 04:08:57;;;;;;;;;;;14.10;99.90;;;;;;5082639;28;19971;-61
2022/08/11 04:11:43;;;;;;;;;;;14.10;99.90;;;;;;5083973;28;19928;-62
2022/08/11 04:17:08;;;;;;;;;;;14.10;99.90;;;;;;5078345;28;19955;-60
2022/08/11 04:20:00;;;;;;;;;;;14.10;99.90;;;;;;5077573;28;20005;-60
2022/08/11 04:22:47;;;;;;;;;;;14.10;99.90;;;;;;5082046;28;19927;-60
2022/08/11 04:25:33;;;;;;;;;;;14.10;99.90;;;;;;5068760;28;19955;-60
2022/08/11 04:28:18;;;;;;;;;;;14.10;99.90;;;;;;5111296;27;19928;-62
2022/08/11 04:30:55;;;;;;;;;;;14.10;99.90;;;;;;5088631;28;19920;-60
2022/08/11 04:33:20;;;;;;;;;;;14.20;99.90;;;;;;5085652;28;19955;-60
2022/08/11 04:35:55;;;;;;;;;;;14.20;99.90;;;;;;5066338;28;19971;-62
2022/08/11 04:38:39;;;;;;;;;;;14.20;99.90;;;;;;5083779;28;19974;-61
2022/08/11 04:41:25;;;;;;;;;;;14.10;99.90;;;;;;5081727;28;20053;-60
2022/08/11 04:44:10;;;;;;;;;;;14.20;99.90;;;;;;5082552;28;19928;-60
2022/08/11 04:46:54;;;;;;;;;;;14.20;99.90;;;;;;5079855;28;19927;-60
2022/08/11 05:04:03;;;;;;;;;;;14.30;99.90;;;;;;5081918;28;19920;-61
2022/08/11 05:06:45;;;;;;;;;;;14.30;99.90;;;;;;5082763;28;20013;-61
2022/08/11 05:09:16;;;;;;;;;;;14.30;99.90;;;;;;5083619;28;19935;-60
2022/08/11 05:12:05;;;;;;;;;;;14.40;99.90;;;;;;5116531;27;19923;-61
2022/08/11 05:35:14;;;;;;;;;;;15.20;99.90;;;;;;5084008;28;20406;-61
2022/08/11 05:37:41;;;;;;;;;;;15.20;99.90;;;;;;5083335;28;19924;-60
2022/08/11 05:56:55;;;;;;;;;;;16.10;99.90;;;;;;5081045;28;19936;-62
2022/08/11 05:59:21;;;;;;;;;;;16.20;99.90;;;;;;5085579;28;20302;-62
2022/08/11 06:01:47;;;;;;;;;;;16.40;99.90;;;;;;5087392;28;20280;-60
2022/08/11 06:04:19;;;;;;;;;;;16.70;99.90;;;;;;5112538;27;19924;-61
2022/08/11 06:06:53;;;;;;;;;;;16.90;99.90;;;;;;5083115;28;19980;-60
2022/08/11 06:09:35;;;;;;;;;;;17.10;99.90;;;;;;5084242;28;19927;-62
2022/08/11 06:12:05;;;;;;;;;;;17.20;99.90;;;;;;5084594;28;19924;-62
2022/08/11 06:14:31;;;;;;;;;;;17.40;99.90;;;;;;5089489;28;19920;-62
2022/08/11 06:16:58;;;;;;;;;;;17.50;99.90;;;;;;5085521;28;20241;-61
2022/08/11 06:19:30;;;;;;;;;;;17.70;99.90;;;;;;5079773;28;19982;-61
2022/08/11 06:21:56;;;;;;;;;;;17.80;99.90;;;;;;5082465;28;19940;-61
2022/08/11 06:24:22;;;;;;;;;;;17.90;99.90;;;;;;5086459;28;19935;-62
2022/08/11 06:26:49;;;;;;;;;;;18.10;99.90;;;;;;5083715;28;19924;-62
2022/08/11 06:29:17;;;;;;;;;;;18.30;99.90;;;;;;5085159;28;19930;-61
2022/08/11 06:31:50;;;;;;;;;;;18.50;99.90;;;;;;5082396;28;19925;-62
2022/08/11 06:34:27;;;;;;;;;;;18.70;99.90;;;;;;5076892;28;20391;-61
2022/08/11 06:36:58;;;;;;;;;;;19.00;99.90;;;;;;5079012;28;20782;-62
2022/08/11 06:39:32;;;;;;;;;;;19.30;99.90;;;;;;5083123;28;20003;-62
2022/08/11 06:42:02;;;;;;;;;;;19.50;99.90;;;;;;5084768;28;19936;-62
2022/08/11 06:44:31;;;;;;;;;;;19.70;99.90;;;;;;5084271;28;19928;-61
2022/08/11 06:47:03;;;;;;;;;;;20.00;99.90;;;;;;5085399;28;19927;-62
2022/08/11 06:52:18;;;;;;;;;;;20.40;99.90;;;;;;5078165;28;20465;-61
2022/08/11 06:54:49;;;;;;;;;;;20.70;99.90;;;;;;5083792;28;19973;-62
2022/08/11 07:02:59;;;;;;;;;;;21.40;98.40;;;;;;5079659;28;20282;-62
2022/08/11 07:05:33;;;;;;;;;;;21.50;96.30;;;;;;5078664;28;19974;-61
2022/08/11 07:16:40;;;;;;;;;;;22.30;94.10;;;;;;5077707;28;19924;-61
2022/08/11 07:30:11;;;;;;;;;;;23.60;87.50;;;;;;5075660;28;19928;-61
2022/08/11 07:33:03;;;;;;;;;;;23.80;87.10;;;;;;5079376;28;19939;-61
2022/08/11 07:35:33;;;;;;;;;;;23.90;84.60;;;;;;5080680;28;19929;-62
2022/08/11 07:38:06;;;;;;;;;;;24.10;84.10;;;;;;5082594;28;19928;-63
2022/08/11 07:40:32;;;;;;;;;;;24.30;83.10;;;;;;5083648;28;20015;-62
2022/08/11 07:42:59;;;;;;;;;;;24.60;81.40;;;;;;5082147;28;19924;-62
2022/08/11 07:53:39;;;;;;;;;;;25.50;74.10;;;;;;5078291;28;19924;-63
2022/08/11 07:56:05;;;;;;;;;;;25.70;74.60;;;;;;5076656;28;19924;-63
2022/08/11 08:17:52;;;;;;;;;;;27.60;64.50;;;;;;5080113;28;20267;-60
2022/08/11 08:20:19;;;;;;;;;;;27.90;60.40;;;;;;5071426;28;20022;-61
2022/08/11 08:22:55;;;;;;;;;;;28.20;59.50;;;;;;5078105;28;20022;-62
2022/08/11 08:25:24;;;;;;;;;;;28.30;56.20;;;;;;5079204;28;19927;-62
2022/08/11 08:27:50;;;;;;;;;;;28.60;60.60;;;;;;5082390;28;19920;-61
2022/08/11 08:33:01;;;;;;;;;;;29.00;55.80;;;;;;5076474;28;19936;-63
2022/08/11 08:35:29;;;;;;;;;;;29.30;56.40;;;;;;5079243;28;20408;-63
2022/08/11 08:37:55;;;;;;;;;;;29.70;54.60;;;;;;5077360;28;19920;-63
2022/08/11 08:40:20;;;;;;;;;;;30.00;54.50;;;;;;5076714;28;20019;-62
2022/08/11 08:42:50;;;;;;;;;;;30.20;54.00;;;;;;5078775;28;20023;-60
2022/08/11 08:45:17;;;;;;;;;;;30.40;51.60;;;;;;5074606;28;19928;-60
2022/08/11 08:47:49;;;;;;;;;;;30.60;52.00;;;;;;5075981;28;19928;-60
2022/08/11 08:50:20;;;;;;;;;;;30.90;48.30;;;;;;5091276;28;20370;-61
2022/08/11 08:53:02;;;;;;;;;;;31.00;50.00;;;;;;5077618;28;20573;-60
2022/08/11 08:55:29;;;;;;;;;;;31.30;50.30;;;;;;5075809;28;19932;-62
2022/08/11 08:57:55;;;;;;;;;;;31.70;47.90;;;;;;5074031;28;19928;-62
2022/08/11 09:00:21;;;;;;;;;;;32.00;43.80;;;;;;5075822;28;20337;-61
2022/08/11 09:02:46;;;;;;;;;;;32.10;46.60;;;;;;5080625;28;19924;-63
2022/08/11 09:05:15;;;;;;;;;;;32.40;45.20;;;;;;5072885;28;20406;-61
2022/08/11 09:07:41;;;;;;;;;;;32.60;43.40;;;;;;5076926;28;19924;-62
2022/08/11 09:10:08;;;;;;;;;;;33.10;44.90;;;;;;5078595;28;19932;-61
2022/08/11 09:12:34;;;;;;;;;;;33.40;46.50;;;;;;5077941;28;19920;-61
2022/08/11 09:15:03;;;;;;;;;;;34.00;43.00;;;;;;5074186;28;20788;-62
2022/08/11 09:17:30;;;;;;;;;;;34.20;43.30;;;;;;5077787;28;19952;-63
2022/08/11 09:20:10;;;;;;;;;;;34.00;40.30;;;;;;5073999;28;20023;-63
2022/08/11 09:28:12;;;;;;;;;;;33.40;37.90;;;;;;5075152;28;19924;-62
2022/08/11 09:30:40;;;;;;;;;;;32.40;38.80;;;;;;5107022;28;20492;-62
2022/08/11 09:33:05;;;;;;;;;;;31.70;39.60;;;;;;5076300;28;20439;-60
2022/08/11 09:35:33;;;;;;;;;;;31.40;41.10;;;;;;5071060;28;19935;-61
2022/08/11 09:40:47;;;;;;;;;;;30.80;40.80;;;;;;5077369;28;19924;-60
2022/08/11 09:45:58;;;;;;;;;;;31.00;41.50;;;;;;5077123;28;19932;-61
2022/08/11 09:48:25;;;;;;;;;;;31.20;40.40;;;;;;5077737;28;19927;-60
2022/08/11 09:50:52;;;;;;;;;;;31.20;41.70;;;;;;5074975;28;19924;-60
2022/08/11 09:53:18;;;;;;;;;;;31.30;41.90;;;;;;5075622;28;20049;-60
2022/08/11 09:55:47;;;;;;;;;;;30.90;42.10;;;;;;5111276;27;20295;-62
2022/08/11 09:58:15;;;;;;;;;;;31.00;41.80;;;;;;5079761;28;19924;-61
2022/08/11 10:00:41;;;;;;;;;;;30.90;39.40;;;;;;5082214;28;19959;-61
2022/08/11 10:03:09;;;;;;;;;;;30.80;40.10;;;;;;5113568;27;20295;-60
2022/08/11 10:08:21;;;;;;;;;;;31.10;41.60;;;;;;5081841;28;19969;-60
2022/08/11 10:10:48;;;;;;;;;;;31.30;40.20;;;;;;5081660;28;19977;-62
2022/08/11 10:13:16;;;;;;;;;;;31.70;40.50;;;;;;5086867;28;19924;-61
2022/08/11 10:15:45;;;;;;;;;;;31.50;39.20;;;;;;5080573;28;21596;-62
2022/08/11 10:21:06;;;;;;;;;;;31.20;39.10;;;;;;5078375;28;19967;-60
2022/08/11 10:29:02;;;;;;;;;;;30.40;39.30;;;;;;5074980;28;20006;-62
2022/08/11 10:34:13;;;;;;;;;;;30.30;40.40;;;;;;5082172;28;20031;-60
2022/08/11 10:36:48;;;;;;;;;;;30.20;40.90;;;;;;5096718;28;19935;-62
2022/08/11 10:39:16;;;;;;;;;;;30.20;40.40;;;;;;5082817;28;19980;-60
2022/08/11 10:44:46;;;;;;;;;;;30.10;40.10;;;;;;5078746;28;19920;-61
2022/08/11 11:00:57;;;;;;;;;;;29.40;40.90;;;;;;5080492;28;20019;-62
2022/08/11 11:03:27;;;;;;;;;;;29.50;40.90;;;;;;5079001;28;19959;-61
2022/08/11 11:05:54;;;;;;;;;;;29.60;41.00;;;;;;5078829;28;19928;-61
2022/08/11 11:11:08;;;;;;;;;;;29.60;40.50;;;;;;5077264;28;20011;-61
2022/08/11 11:19:07;;;;;;;;;;;29.40;39.90;;;;;;5079357;28;20451;-62
2022/08/11 11:21:34;;;;;;;;;;;29.50;39.80;;;;;;5077251;28;19923;-61
2022/08/11 11:24:18;;;;;;;;;;;29.30;40.80;;;;;;5078163;28;20017;-62
2022/08/11 11:26:54;;;;;;;;;;;29.40;41.20;;;;;;5078853;28;19920;-61
2022/08/11 11:29:26;;;;;;;;;;;29.70;41.30;;;;;;5080964;28;19924;-61
2022/08/11 11:31:54;;;;;;;;;;;29.60;40.20;;;;;;5079164;28;20007;-61
2022/08/11 11:34:35;;;;;;;;;;;29.70;40.30;;;;;;5081590;28;19928;-62
2022/08/11 11:37:02;;;;;;;;;;;29.70;39.80;;;;;;5078668;28;19927;-61
2022/08/11 11:39:30;;;;;;;;;;;29.80;40.70;;;;;;5077917;28;19946;-62
2022/08/11 11:41:57;;;;;;;;;;;29.80;39.60;;;;;;5079957;28;19935;-62
2022/08/11 11:44:23;;;;;;;;;;;29.60;39.50;;;;;;5077212;28;19924;-61
2022/08/11 11:46:49;;;;;;;;;;;29.70;40.20;;;;;;5079390;28;20043;-61
2022/08/11 11:49:20;;;;;;;;;;;29.70;39.40;;;;;;5079448;28;19920;-60
2022/08/11 11:51:47;;;;;;;;;;;29.70;40.30;;;;;;5078418;28;19963;-61
2022/08/11 11:54:13;;;;;;;;;;;29.90;39.30;;;;;;5081326;28;20003;-62
2022/08/11 11:56:40;;;;;;;;;;;29.90;39.10;;;;;;5081719;28;20310;-61
2022/08/11 12:01:53;;;;;;;;;;;30.10;39.30;;;;;;5109956;27;21276;-61
2022/08/11 12:04:19;;;;;;;;;;;30.10;40.40;;;;;;5080832;28;19920;-61
2022/08/11 12:06:45;;;;;;;;;;;30.00;39.10;;;;;;5077102;28;20338;-62
2022/08/11 12:09:14;;;;;;;;;;;30.20;39.80;;;;;;5080833;28;19920;-60
2022/08/11 12:14:27;;;;;;;;;;;29.90;39.20;;;;;;5080149;28;19928;-61
2022/08/11 12:16:54;;;;;;;;;;;29.90;39.30;;;;;;5076256;28;20056;-60
2022/08/11 12:19:22;;;;;;;;;;;30.10;38.20;;;;;;5079072;28;19935;-62
2022/08/11 12:27:20;;;;;;;;;;;30.40;39.20;;;;;;5080026;28;19924;-61
2022/08/11 12:29:47;;;;;;;;;;;30.50;39.00;;;;;;5081060;28;19947;-61
2022/08/11 12:32:13;;;;;;;;;;;30.50;39.70;;;;;;5081349;28;19971;-61
2022/08/11 12:34:38;;;;;;;;;;;30.70;39.40;;;;;;5079615;28;19952;-60
2022/08/11 12:37:09;;;;;;;;;;;30.90;38.80;;;;;;5082354;28;19939;-62
2022/08/11 12:45:28;;;;;;;;;;;31.70;38.90;;;;;;5077846;28;19924;-60
2022/08/11 12:53:36;;;;;;;;;;;34.40;34.30;;;;;;5075191;28;19928;-61
2022/08/11 12:58:48;;;;;;;;;;;38.20;33.80;;;;;;5074447;28;19928;-62
2022/08/11 13:06:42;;;;;;;;;;;41.10;29.60;;;;;;5074671;28;19999;-61
2022/08/11 13:09:09;;;;;;;;;;;40.10;28.50;;;;;;5075416;28;20444;-62
2022/08/11 13:14:19;;;;;;;;;;;39.80;28.70;;;;;;5078023;28;19924;-62
2022/08/11 13:19:29;;;;;;;;;;;41.50;29.10;;;;;;5077810;28;19974;-61
2022/08/11 13:21:56;;;;;;;;;;;42.80;28.40;;;;;;5090520;28;20009;-62
2022/08/11 13:24:21;;;;;;;;;;;43.60;26.80;;;;;;5079737;28;19926;-61
2022/08/11 13:26:49;;;;;;;;;;;44.10;27.70;;;;;;5078255;28;19920;-62
2022/08/11 13:29:16;;;;;;;;;;;44.70;27.20;;;;;;5081686;28;20049;-62
2022/08/11 13:31:41;;;;;;;;;;;44.80;26.50;;;;;;5081550;28;19925;-62
2022/08/11 13:34:07;;;;;;;;;;;44.90;26.50;;;;;;5083646;28;19927;-62
2022/08/11 13:36:33;;;;;;;;;;;45.20;26.70;;;;;;5079770;28;19924;-62
2022/08/11 13:39:01;;;;;;;;;;;45.40;25.90;;;;;;5081683;28;19920;-62
2022/08/11 13:41:40;;;;;;;;;;;45.60;26.20;;;;;;5111762;27;19974;-61
2022/08/11 13:44:07;;;;;;;;;;;45.90;25.80;;;;;;5112468;27;19928;-63
2022/08/11 13:46:33;;;;;;;;;;;45.70;24.60;;;;;;5081006;28;19920;-63
2022/08/11 13:48:59;;;;;;;;;;;45.60;24.50;;;;;;5079762;28;20287;-61
2022/08/11 13:51:35;;;;;;;;;;;45.20;23.70;;;;;;5111272;27;19924;-61
2022/08/11 13:54:05;;;;;;;;;;;45.30;25.20;;;;;;5080451;28;20015;-63
2022/08/11 13:56:32;;;;;;;;;;;45.00;24.80;;;;;;5078711;28;19933;-61
2022/08/11 13:58:58;;;;;;;;;;;44.90;24.70;;;;;;5080456;28;19928;-61
2022/08/11 14:01:28;;;;;;;;;;;45.00;25.20;;;;;;5084305;28;19932;-62
2022/08/11 14:03:55;;;;;;;;;;;44.80;24.10;;;;;;5077682;28;19928;-62
2022/08/11 14:06:21;;;;;;;;;;;43.90;24.90;;;;;;5081701;28;20367;-63
2022/08/11 14:08:48;;;;;;;;;;;44.30;25.50;;;;;;5080342;28;19927;-62
2022/08/11 14:14:00;;;;;;;;;;;42.70;25.00;;;;;;5081834;28;19924;-62
2022/08/11 14:16:30;;;;;;;;;;;42.90;26.00;;;;;;5082744;28;20378;-61
2022/08/11 14:19:01;;;;;;;;;;;43.20;26.20;;;;;;5079895;28;19971;-63
2022/08/11 14:24:11;;;;;;;;;;;43.00;25.20;;;;;;5082018;28;19924;-61
2022/08/11 14:26:38;;;;;;;;;;;43.30;25.40;;;;;;5080852;28;20017;-62
2022/08/11 14:29:08;;;;;;;;;;;43.60;26.40;;;;;;5087004;28;19974;-62
2022/08/11 14:31:38;;;;;;;;;;;43.80;26.10;;;;;;5080987;28;19926;-61
2022/08/11 14:34:06;;;;;;;;;;;43.50;25.60;;;;;;5080739;28;19927;-62
2022/08/11 14:36:38;;;;;;;;;;;43.80;25.80;;;;;;5079650;28;19920;-62
2022/08/11 14:39:11;;;;;;;;;;;43.80;25.10;;;;;;5081754;28;20417;-62
2022/08/11 14:47:07;;;;;;;;;;;39.80;26.20;;;;;;5080858;28;19936;-61
2022/08/11 14:49:34;;;;;;;;;;;37.50;27.20;;;;;;5077854;28;19927;-61
2022/08/11 14:52:00;;;;;;;;;;;36.00;28.30;;;;;;5078209;28;19924;-61
2022/08/11 14:57:12;;;;;;;;;;;34.00;31.10;;;;;;5078412;28;20364;-62
2022/08/11 14:59:37;;;;;;;;;;;33.20;32.20;;;;;;5078983;28;19935;-61
2022/08/11 15:04:49;;;;;;;;;;;32.10;33.60;;;;;;5078630;28;19968;-62
2022/08/11 15:07:15;;;;;;;;;;;31.70;34.60;;;;;;5082585;28;19965;-61
2022/08/11 15:09:42;;;;;;;;;;;31.20;35.00;;;;;;5076730;28;19924;-61
2022/08/11 15:12:15;;;;;;;;;;;31.00;35.50;;;;;;5080900;28;19973;-63
2022/08/11 15:17:26;;;;;;;;;;;30.60;35.80;;;;;;5081805;28;19928;-61
2022/08/11 15:25:22;;;;;;;;;;;30.00;36.90;;;;;;5081517;28;20308;-60
2022/08/11 15:38:52;;;;;;;;;;;29.50;38.50;;;;;;5080282;28;19928;-61
2022/08/11 15:46:56;;;;;;;;;;;29.30;39.10;;;;;;5076489;28;20047;-61
2022/08/11 15:49:27;;;;;;;;;;;29.20;39.70;;;;;;5077387;28;20292;-60
2022/08/11 15:52:05;;;;;;;;;;;29.10;39.80;;;;;;5073439;28;19928;-61
2022/08/11 15:54:31;;;;;;;;;;;29.10;39.20;;;;;;5114491;27;19939;-60
2022/08/11 15:57:00;;;;;;;;;;;29.00;39.00;;;;;;5077810;28;19935;-60
2022/08/11 16:04:58;;;;;;;;;;;28.80;40.10;;;;;;5078124;28;19934;-60
2022/08/11 16:07:29;;;;;;;;;;;28.70;40.90;;;;;;5076626;28;19968;-61
2022/08/11 16:09:56;;;;;;;;;;;28.60;41.80;;;;;;5080506;28;19920;-60
2022/08/11 16:12:23;;;;;;;;;;;28.50;42.20;;;;;;5074795;28;19927;-61
2022/08/11 16:17:48;;;;;;;;;;;28.40;43.00;;;;;;5077473;28;19924;-60
2022/08/11 16:20:16;;;;;;;;;;;28.30;43.30;;;;;;5076413;28;19928;-60
2022/08/11 16:22:42;;;;;;;;;;;28.20;43.30;;;;;;5076203;28;19938;-61
2022/08/11 16:25:20;;;;;;;;;;;28.20;43.90;;;;;;5082918;28;19924;-60
2022/08/11 16:27:48;;;;;;;;;;;28.10;43.80;;;;;;5087925;28;20427;-59
2022/08/11 16:30:14;;;;;;;;;;;28.10;45.00;;;;;;5071704;28;20414;-59
2022/08/11 16:32:42;;;;;;;;;;;28.00;44.30;;;;;;5084745;28;19920;-60
2022/08/11 16:40:45;;;;;;;;;;;27.90;45.10;;;;;;5090009;28;20363;-61
2022/08/11 16:48:44;;;;;;;;;;;27.70;45.80;;;;;;5080665;28;20287;-60
2022/08/11 16:51:11;;;;;;;;;;;27.70;46.60;;;;;;5083841;28;20366;-61
2022/08/11 16:53:38;;;;;;;;;;;27.60;46.20;;;;;;5081943;28;20063;-59
2022/08/11 16:56:04;;;;;;;;;;;27.60;46.20;;;;;;5087992;28;19928;-60
2022/08/11 17:01:18;;;;;;;;;;;27.50;46.50;;;;;;5080379;28;19924;-60
2022/08/11 17:14:51;;;;;;;;;;;27.20;47.00;;;;;;5094249;28;19924;-61
2022/08/11 17:17:20;;;;;;;;;;;27.20;46.70;;;;;;5094244;28;19920;-61
2022/08/11 17:19:48;;;;;;;;;;;27.20;46.20;;;;;;5093175;28;19927;-60
2022/08/11 17:24:58;;;;;;;;;;;27.00;46.70;;;;;;5096783;28;19927;-61
2022/08/11 17:27:24;;;;;;;;;;;27.00;46.70;;;;;;5122106;27;19927;-59
2022/08/11 17:29:52;;;;;;;;;;;26.90;46.50;;;;;;5096634;28;19924;-60
2022/08/11 17:35:29;;;;;;;;;;;26.80;46.40;;;;;;5089860;28;20022;-60
2022/08/11 17:38:15;;;;;;;;;;;26.70;47.00;;;;;;5090313;28;19966;-60
2022/08/11 17:48:24;;;;;;;;;;;26.70;47.10;;;;;;5095553;28;20375;-61
2022/08/11 17:48:59;;;;;;;;;;;26.50;48.30;;;;;;5096743;28;19928;-61
2022/08/11 17:59:50;;;;;;;;;;;26.20;49.10;;;;;;5096935;28;20024;-60
2022/08/11 18:05:11;;;;;;;;;;;26.10;48.80;;;;;;5086131;28;19923;-63
